createdAt,value
2023-04-22T00:01:00.024Z,100790.69
2023-04-22T00:03:24.853Z,100790.50
2023-04-22T00:05:47.179Z,100784.22
2023-04-22T00:08:09.223Z,100785.84
2023-04-22T00:10:31.021Z,100787.75
2023-04-22T00:12:52.846Z,100783.09
2023-04-22T00:15:14.704Z,100780.97
2023-04-22T00:17:37.089Z,100786.00
2023-04-22T00:19:59.308Z,100779.22
2023-04-22T00:22:21.200Z,100781.16
2023-04-22T00:24:43.156Z,100776.81
2023-04-22T00:27:04.924Z,100775.19
2023-04-22T00:29:27.008Z,100781.84
2023-04-22T00:31:48.902Z,100770.34
2023-04-22T00:34:11.645Z,100775.38
2023-04-22T00:36:33.449Z,100765.81
2023-04-22T00:38:55.270Z,100771.31
2023-04-22T00:41:18.286Z,100765.03
2023-04-22T00:43:40.090Z,100766.16
2023-04-22T00:46:02.411Z,100760.66
2023-04-22T00:48:28.673Z,100760.00
2023-04-22T00:50:51.197Z,100766.63
2023-04-22T00:53:12.962Z,100761.47
2023-04-22T00:55:35.315Z,100759.03
2023-04-22T00:58:02.040Z,100749.97
2023-04-22T01:00:27.436Z,100756.94
2023-04-22T01:02:49.736Z,100759.69
2023-04-22T01:05:11.706Z,100750.97
2023-04-22T01:07:34.380Z,100754.88
2023-04-22T01:09:57.398Z,100758.72
2023-04-22T01:12:19.174Z,100755.50
2023-04-22T01:14:41.544Z,100756.97
2023-04-22T01:17:03.655Z,100752.44
2023-04-22T01:19:26.455Z,100754.75
2023-04-22T01:21:54.381Z,100755.72
2023-04-22T01:24:16.856Z,100748.47
2023-04-22T01:26:39.818Z,100751.88
2023-04-22T01:29:03.242Z,100750.56
2023-04-22T01:31:25.236Z,100743.75
2023-04-22T01:33:48.463Z,100738.94
2023-04-22T01:36:13.148Z,100736.19
2023-04-22T01:38:35.329Z,100736.19
2023-04-22T01:41:02.372Z,100736.97
2023-04-22T01:43:25.321Z,100742.97
2023-04-22T01:45:47.164Z,100743.31
2023-04-22T01:48:11.203Z,100740.88
2023-04-22T01:50:33.182Z,100744.59
2023-04-22T01:52:55.292Z,100752.06
2023-04-22T01:55:17.688Z,100748.16
2023-04-22T01:57:39.901Z,100737.63
2023-04-22T02:00:01.974Z,100742.03
2023-04-22T02:02:34.572Z,100738.63
2023-04-22T02:04:56.715Z,100733.25
2023-04-22T02:07:18.502Z,100732.78
2023-04-22T02:09:40.535Z,100725.19
2023-04-22T02:12:02.643Z,100730.69
2023-04-22T02:14:24.546Z,100726.81
2023-04-22T02:16:46.342Z,100726.16
2023-04-22T02:19:08.228Z,100728.72
2023-04-22T02:21:32.584Z,100731.97
2023-04-22T02:23:54.610Z,100736.31
2023-04-22T02:26:17.369Z,100735.19
2023-04-22T02:28:39.252Z,100728.53
2023-04-22T02:31:01.623Z,100731.78
2023-04-22T02:33:23.775Z,100727.88
2023-04-22T02:35:48.488Z,100730.31
2023-04-22T02:38:13.463Z,100727.69
2023-04-22T02:40:35.284Z,100719.44
2023-04-22T02:42:57.164Z,100716.69
2023-04-22T02:45:19.140Z,100717.53
2023-04-22T02:47:40.892Z,100712.81
2023-04-22T02:50:02.817Z,100717.19
2023-04-22T02:52:24.611Z,100720.41
2023-04-22T02:54:46.527Z,100714.91
2023-04-22T02:57:08.726Z,100704.38
2023-04-22T02:59:31.893Z,100710.38
2023-04-22T03:01:54.199Z,100703.25
2023-04-22T03:04:39.177Z,100697.25
2023-04-22T03:07:01.015Z,100701.63
2023-04-22T03:09:22.791Z,100688.22
2023-04-22T03:11:44.918Z,100687.09
2023-04-22T03:14:06.710Z,100697.25
2023-04-22T03:16:28.523Z,100701.16
2023-04-22T03:18:52.811Z,100694.06
2023-04-22T03:21:15.282Z,100701.03
2023-04-22T03:23:37.033Z,100696.66
2023-04-22T03:26:00.213Z,100689.53
2023-04-22T03:28:22.821Z,100696.66
2023-04-22T03:30:45.061Z,100689.53
2023-04-22T03:33:07.039Z,100683.25
2023-04-22T03:35:35.539Z,100678.19
2023-04-22T03:37:57.351Z,100672.38
2023-04-22T03:40:24.549Z,100667.19
2023-04-22T03:42:46.468Z,100673.97
2023-04-22T03:45:09.025Z,100661.38
2023-04-22T03:47:35.184Z,100663.81
2023-04-22T03:50:05.959Z,100657.16
2023-04-22T03:52:29.066Z,100657.63
2023-04-22T03:54:54.268Z,100661.97
2023-04-22T03:57:16.255Z,100650.66
2023-04-22T03:59:38.447Z,100646.75
2023-04-22T04:02:01.142Z,100649.19
2023-04-22T04:04:23.886Z,100651.94
2023-04-22T04:06:51.231Z,100644.97
2023-04-22T04:09:14.680Z,100648.53
2023-04-22T04:11:36.554Z,100650.94
2023-04-22T04:13:59.125Z,100651.75
2023-04-22T04:16:30.122Z,100647.06
2023-04-22T04:18:59.121Z,100641.53
2023-04-22T04:21:21.805Z,100637.31
2023-04-22T04:23:47.854Z,100640.06
2023-04-22T04:26:11.015Z,100646.06
2023-04-22T04:28:36.283Z,100642.19
2023-04-22T04:30:59.529Z,100641.03
2023-04-22T04:33:21.444Z,100630.03
2023-04-22T04:35:44.904Z,100628.06
2023-04-22T04:38:11.958Z,100630.81
2023-04-22T04:40:36.081Z,100634.06
2023-04-22T04:43:08.196Z,100634.84
2023-04-22T04:45:48.660Z,100641.50
2023-04-22T04:48:19.802Z,100637.28
2023-04-22T04:50:47.388Z,100633.38
2023-04-22T04:53:10.832Z,100629.50
2023-04-22T04:55:36.219Z,100633.06
2023-04-22T04:58:03.054Z,100633.88
2023-04-22T05:00:24.808Z,100635.13
2023-04-22T05:02:47.189Z,100630.44
2023-04-22T05:05:09.698Z,100632.06
2023-04-22T05:07:32.875Z,100627.03
2023-04-22T05:09:54.819Z,100631.06
2023-04-22T05:12:17.213Z,100631.88
2023-04-22T05:14:39.132Z,100631.19
2023-04-22T05:17:03.103Z,100634.41
2023-04-22T05:19:25.314Z,100641.56
2023-04-22T05:21:49.772Z,100642.81
2023-04-22T05:24:12.646Z,100651.53
2023-04-22T05:26:34.534Z,100638.59
2023-04-22T05:29:03.149Z,100641.00
2023-04-22T05:31:25.366Z,100646.97
2023-04-22T05:33:47.173Z,100644.72
2023-04-22T05:36:09.595Z,100646.78
2023-04-22T05:38:32.131Z,100639.78
2023-04-22T05:40:55.106Z,100630.84
2023-04-22T05:43:16.920Z,100629.84
2023-04-22T05:45:44.690Z,100642.97
2023-04-22T05:48:08.973Z,100632.09
2023-04-22T05:50:36.678Z,100628.34
2023-04-22T05:53:03.237Z,100633.66
2023-04-22T05:55:25.098Z,100633.78
2023-04-22T05:57:47.689Z,100639.41
2023-04-22T06:00:35.742Z,100649.75
2023-04-22T06:03:33.599Z,100642.91
2023-04-22T06:05:57.716Z,100642.00
2023-04-22T06:08:19.681Z,100649.84
2023-04-22T06:10:45.844Z,100643.47
2023-04-22T06:13:07.905Z,100640.97
2023-04-22T06:15:30.317Z,100638.47
2023-04-22T06:17:54.660Z,100644.88
2023-04-22T06:20:16.777Z,100628.13
2023-04-22T06:22:40.510Z,100632.28
2023-04-22T06:25:04.537Z,100632.06
2023-04-22T06:27:26.988Z,100621.50
2023-04-22T06:29:48.989Z,100627.25
2023-04-22T06:32:11.307Z,100622.44
2023-04-22T06:34:34.130Z,100613.69
2023-04-22T06:36:57.169Z,100619.56
2023-04-22T06:39:19.229Z,100610.13
2023-04-22T06:41:49.216Z,100612.97
2023-04-22T06:44:26.045Z,100609.97
2023-04-22T06:47:06.814Z,100608.09
2023-04-22T06:49:47.553Z,100600.31
2023-04-22T06:52:16.074Z,100598.31
2023-04-22T06:54:38.768Z,100607.34
2023-04-22T06:57:01.684Z,100621.81
2023-04-22T06:59:24.619Z,100604.72
2023-04-22T07:01:46.681Z,100599.84
2023-04-22T07:04:09.307Z,100592.97
2023-04-22T07:06:31.370Z,100596.34
2023-04-22T07:08:54.094Z,100591.91
2023-04-22T07:11:16.668Z,100589.41
2023-04-22T07:13:48.686Z,100592.81
2023-04-22T07:16:11.293Z,100587.09
2023-04-22T07:18:35.664Z,100584.09
2023-04-22T07:20:58.486Z,100583.19
2023-04-22T07:23:20.950Z,100577.53
2023-04-22T07:25:43.391Z,100581.41
2023-04-22T07:28:05.432Z,100576.97
2023-04-22T07:30:28.081Z,100580.84
2023-04-22T07:32:49.945Z,100579.59
2023-04-22T07:35:12.308Z,100582.31
2023-04-22T07:37:34.528Z,100581.84
2023-04-22T07:39:57.076Z,100583.84
2023-04-22T07:42:20.586Z,100585.63
2023-04-22T07:44:43.067Z,100585.75
2023-04-22T07:47:07.927Z,100581.44
2023-04-22T07:49:30.905Z,100576.31
2023-04-22T07:51:53.770Z,100580.31
2023-04-22T07:54:16.104Z,100583.09
2023-04-22T07:56:38.260Z,100586.72
2023-04-22T07:59:00.283Z,100582.88
2023-04-22T08:01:22.124Z,100587.88
2023-04-22T08:03:44.929Z,100596.44
2023-04-22T08:06:08.580Z,100590.28
2023-04-22T08:08:30.744Z,100594.06
2023-04-22T08:10:53.038Z,100593.03
2023-04-22T08:13:17.135Z,100576.50
2023-04-22T08:15:40.318Z,100560.72
2023-04-22T08:18:02.388Z,100563.19
2023-04-22T08:20:25.788Z,100561.28
2023-04-22T08:22:48.687Z,100545.50
2023-04-22T08:25:10.866Z,100551.53
2023-04-22T08:27:32.963Z,100549.22
2023-04-22T08:29:55.034Z,100552.03
2023-04-22T08:32:19.604Z,100545.69
2023-04-22T08:34:42.021Z,100547.34
2023-04-22T08:37:04.397Z,100553.31
2023-04-22T08:39:26.323Z,100548.22
2023-04-22T08:41:50.616Z,100539.56
2023-04-22T08:44:14.646Z,100540.50
2023-04-22T08:46:37.387Z,100535.84
2023-04-22T08:49:04.076Z,100535.56
2023-04-22T08:51:26.864Z,100526.94
2023-04-22T08:53:48.985Z,100530.66
2023-04-22T08:56:13.506Z,100529.16
2023-04-22T08:58:36.205Z,100517.25
2023-04-22T09:01:01.231Z,100515.69
2023-04-22T09:03:24.546Z,100520.53
2023-04-22T09:05:52.487Z,100516.97
2023-04-22T09:08:14.805Z,100518.97
2023-04-22T09:10:38.823Z,100508.63
2023-04-22T09:13:03.685Z,100499.91
2023-04-22T09:15:26.469Z,100493.13
2023-04-22T09:17:52.797Z,100488.31
2023-04-22T09:20:16.265Z,100491.91
2023-04-22T09:22:49.762Z,100495.09
2023-04-22T09:25:27.620Z,100484.28
2023-04-22T09:27:56.799Z,100476.28
2023-04-22T09:30:34.586Z,100480.69
2023-04-22T09:33:07.794Z,100479.50
2023-04-22T09:35:36.541Z,100491.06
2023-04-22T09:38:01.997Z,100484.66
2023-04-22T09:40:25.425Z,100498.19
2023-04-22T09:42:57.135Z,100487.44
2023-04-22T09:45:30.614Z,100487.34
2023-04-22T09:47:55.850Z,100492.13
2023-04-22T09:50:21.400Z,100490.47
2023-04-22T09:52:43.316Z,100485.69
2023-04-22T09:55:09.553Z,100472.06
2023-04-22T09:57:31.757Z,100473.16
2023-04-22T09:59:56.284Z,100475.03
2023-04-22T10:02:18.591Z,100472.56
2023-04-22T10:04:41.138Z,100474.09
2023-04-22T10:07:03.173Z,100459.97
2023-04-22T10:09:26.013Z,100470.66
2023-04-22T10:11:51.532Z,100470.13
2023-04-22T10:14:16.385Z,100471.66
2023-04-22T10:16:40.823Z,100470.00
2023-04-22T10:19:07.476Z,100472.81
2023-04-22T10:21:32.724Z,100474.72
2023-04-22T10:23:55.162Z,100469.06
2023-04-22T10:26:49.315Z,100471.84
2023-04-22T10:29:19.134Z,100475.47
2023-04-22T10:31:41.474Z,100479.19
2023-04-22T10:34:15.575Z,100477.72
2023-04-22T10:37:00.267Z,100473.72
2023-04-22T10:39:24.657Z,100465.25
2023-04-22T10:42:11.618Z,100479.66
2023-04-22T10:44:52.616Z,100473.69
2023-04-22T10:47:30.005Z,100490.22
2023-04-22T10:49:52.971Z,100484.69
2023-04-22T10:52:29.656Z,100478.34
2023-04-22T10:54:54.946Z,100486.84
2023-04-22T10:57:22.836Z,100475.31
2023-04-22T10:59:58.426Z,100479.00
2023-04-22T11:02:23.803Z,100488.56
2023-04-22T11:04:46.735Z,100482.53
2023-04-22T11:07:22.926Z,100476.53
2023-04-22T11:10:05.767Z,100481.75
2023-04-22T11:12:42.288Z,100481.31
2023-04-22T11:15:20.046Z,100461.16
2023-04-22T11:17:51.144Z,100460.09
2023-04-22T11:20:19.368Z,100457.53
2023-04-22T11:22:46.234Z,100457.09
2023-04-22T11:25:12.748Z,100459.50
2023-04-22T11:27:34.906Z,100468.38
2023-04-22T11:30:15.044Z,100466.03
2023-04-22T11:32:41.233Z,100462.53
2023-04-22T11:35:07.712Z,100461.53
2023-04-22T11:37:29.921Z,100464.13
2023-04-22T11:40:13.638Z,100468.66
2023-04-22T11:42:39.627Z,100475.56
2023-04-22T11:45:01.709Z,100469.25
2023-04-22T11:47:23.602Z,100472.91
2023-04-22T11:50:01.987Z,100471.72
2023-04-22T11:52:24.012Z,100464.59
2023-04-22T11:54:46.425Z,100462.59
2023-04-22T11:57:11.749Z,100460.22
2023-04-22T11:59:34.807Z,100451.06
2023-04-22T12:01:57.137Z,100451.09
2023-04-22T12:04:22.700Z,100459.06
2023-04-22T12:06:47.055Z,100451.50
2023-04-22T12:09:09.684Z,100456.72
2023-04-22T12:11:32.175Z,100458.75
2023-04-22T12:13:54.350Z,100457.97
2023-04-22T12:16:20.104Z,100453.16
2023-04-22T12:18:54.457Z,100459.97
2023-04-22T12:21:28.399Z,100463.94
2023-04-22T12:23:55.930Z,100467.13
2023-04-22T12:26:23.661Z,100463.16
2023-04-22T12:28:48.250Z,100454.78
2023-04-22T12:31:11.834Z,100453.16
2023-04-22T12:33:34.969Z,100454.78
2023-04-22T12:35:57.174Z,100463.16
2023-04-22T12:38:19.856Z,100463.94
2023-04-22T12:40:42.583Z,100469.13
2023-04-22T12:43:06.257Z,100472.75
2023-04-22T12:45:28.240Z,100489.09
2023-04-22T12:47:54.112Z,100476.75
2023-04-22T12:50:16.703Z,100471.97
2023-04-22T12:52:39.539Z,100480.38
2023-04-22T12:55:03.167Z,100467.19
2023-04-22T12:57:26.996Z,100471.97
2023-04-22T12:59:50.294Z,100473.94
2023-04-22T13:02:13.955Z,100474.31
2023-04-22T13:04:36.891Z,100475.13
2023-04-22T13:07:00.710Z,100486.28
2023-04-22T13:09:26.279Z,100491.03
2023-04-22T13:11:49.602Z,100496.97
2023-04-22T13:14:13.070Z,100501.75
2023-04-22T13:16:36.460Z,100505.69
2023-04-22T13:18:59.141Z,100506.84
2023-04-22T13:21:21.485Z,100505.22
2023-04-22T13:23:44.406Z,100506.69
2023-04-22T13:26:07.250Z,100516.56
2023-04-22T13:28:29.529Z,100511.72
2023-04-22T13:30:52.147Z,100519.28
2023-04-22T13:33:14.154Z,100518.44
2023-04-22T13:35:37.423Z,100530.69
2023-04-22T13:37:59.611Z,100532.97
2023-04-22T13:40:22.172Z,100529.28
2023-04-22T13:42:44.513Z,100527.59
2023-04-22T13:45:08.482Z,100533.16
2023-04-22T13:47:31.188Z,100533.09
2023-04-22T13:49:53.021Z,100538.91
2023-04-22T13:52:14.884Z,100541.63
2023-04-22T13:54:36.636Z,100521.34
2023-04-22T13:56:58.632Z,100520.91
2023-04-22T13:59:20.603Z,100524.06
2023-04-22T14:01:42.602Z,100521.69
2023-04-22T14:04:05.207Z,100520.91
2023-04-22T14:06:27.404Z,100516.53
2023-04-22T14:08:49.443Z,100515.34
2023-04-22T14:11:12.577Z,100508.22
2023-04-22T14:13:35.597Z,100508.66
2023-04-22T14:15:57.897Z,100507.94
2023-04-22T14:18:20.450Z,100510.00
2023-04-22T14:20:43.139Z,100512.47
2023-04-22T14:23:07.724Z,100510.13
2023-04-22T14:25:29.520Z,100516.47
2023-04-22T14:27:51.433Z,100503.78
2023-04-22T14:30:14.663Z,100514.16
2023-04-22T14:32:36.834Z,100511.00
2023-04-22T14:34:58.805Z,100510.66
2023-04-22T14:37:21.873Z,100500.72
2023-04-22T14:39:44.537Z,100499.94
2023-04-22T14:42:06.569Z,100503.94
2023-04-22T14:44:28.589Z,100509.13
2023-04-22T14:46:50.348Z,100505.94
2023-04-22T14:49:12.271Z,100501.22
2023-04-22T14:51:36.960Z,100505.63
2023-04-22T14:53:59.135Z,100514.03
2023-04-22T14:56:21.368Z,100509.66
2023-04-22T14:58:43.474Z,100509.66
2023-04-22T15:01:07.546Z,100511.19
2023-04-22T15:03:30.142Z,100523.50
2023-04-22T15:05:52.546Z,100518.63
2023-04-22T15:08:14.372Z,100515.78
2023-04-22T15:10:36.259Z,100515.31
2023-04-22T15:12:58.418Z,100516.03
2023-04-22T15:15:20.709Z,100522.72
2023-04-22T15:17:43.635Z,100527.50
2023-04-22T15:20:08.713Z,100526.66
2023-04-22T15:22:32.119Z,100518.22
2023-04-22T15:24:53.912Z,100524.50
2023-04-22T15:27:15.729Z,100522.03
2023-04-22T15:29:37.985Z,100529.03
2023-04-22T15:32:00.267Z,100526.16
2023-04-22T15:34:23.436Z,100524.50
2023-04-22T15:36:46.442Z,100525.63
2023-04-22T15:39:10.691Z,100521.97
2023-04-22T15:41:36.431Z,100531.44
2023-04-22T15:43:58.532Z,100533.75
2023-04-22T15:46:21.427Z,100525.72
2023-04-22T15:48:47.219Z,100520.50
2023-04-22T15:51:09.086Z,100525.22
2023-04-22T15:53:30.941Z,100516.47
2023-04-22T15:55:52.975Z,100515.25
2023-04-22T15:58:14.770Z,100524.75
2023-04-22T16:00:37.193Z,100521.56
2023-04-22T16:02:59.326Z,100518.34
2023-04-22T16:05:25.194Z,100511.97
2023-04-22T16:07:47.172Z,100510.81
2023-04-22T16:10:10.380Z,100508.84
2023-04-22T16:12:34.071Z,100506.13
2023-04-22T16:14:56.243Z,100512.06
2023-04-22T16:17:18.275Z,100511.34
2023-04-22T16:19:40.444Z,100508.97
2023-04-22T16:22:02.440Z,100505.03
2023-04-22T16:24:25.277Z,100509.81
2023-04-22T16:26:47.149Z,100501.91
2023-04-22T16:29:09.048Z,100499.94
2023-04-22T16:31:31.001Z,100502.75
2023-04-22T16:33:52.801Z,100496.44
2023-04-22T16:36:14.675Z,100491.69
2023-04-22T16:38:36.522Z,100497.56
2023-04-22T16:40:58.567Z,100503.91
2023-04-22T16:43:21.042Z,100497.91
2023-04-22T16:45:42.958Z,100497.84
2023-04-22T16:48:04.952Z,100501.81
2023-04-22T16:50:26.952Z,100495.41
2023-04-22T16:52:48.820Z,100489.84
2023-04-22T16:55:11.090Z,100490.28
2023-04-22T16:57:33.465Z,100499.41
2023-04-22T16:59:55.435Z,100494.28
2023-04-22T17:02:17.344Z,100491.06
2023-04-22T17:04:39.407Z,100489.53
2023-04-22T17:07:02.357Z,100505.81
2023-04-22T17:09:24.281Z,100527.50
2023-04-22T17:11:46.297Z,100537.38
2023-04-22T17:14:08.209Z,100540.47
2023-04-22T17:16:30.121Z,100544.44
2023-04-22T17:18:52.385Z,100542.97
2023-04-22T17:21:15.031Z,100552.13
2023-04-22T17:23:36.842Z,100555.69
2023-04-22T17:25:59.947Z,100571.28
2023-04-22T17:28:22.138Z,100573.13
2023-04-22T17:30:44.061Z,100568.53
2023-04-22T17:33:06.172Z,100560.28
2023-04-22T17:35:28.287Z,100559.22
2023-04-22T17:37:51.197Z,100563.09
2023-04-22T17:40:13.894Z,100569.44
2023-04-22T17:42:45.982Z,100572.13
2023-04-22T17:45:09.701Z,100583.47
2023-04-22T17:47:31.593Z,100580.72
2023-04-22T17:49:54.026Z,100585.06
2023-04-22T17:52:16.034Z,100593.66
2023-04-22T17:54:38.036Z,100593.94
2023-04-22T17:56:59.859Z,100595.00
2023-04-22T17:59:21.590Z,100609.56
2023-04-22T18:01:43.455Z,100605.91
2023-04-22T18:04:06.022Z,100601.19
2023-04-22T18:06:29.046Z,100606.28
2023-04-22T18:08:51.848Z,100608.16
2023-04-22T18:11:14.525Z,100610.47
2023-04-22T18:13:36.807Z,100623.44
2023-04-22T18:16:00.264Z,100620.56
2023-04-22T18:18:22.027Z,100624.13
2023-04-22T18:20:45.719Z,100623.34
2023-04-22T18:23:07.842Z,100629.31
2023-04-22T18:25:29.947Z,100638.41
2023-04-22T18:27:55.673Z,100639.22
2023-04-22T18:30:17.981Z,100639.22
2023-04-22T18:32:39.917Z,100636.81
2023-04-22T18:35:01.923Z,100641.69
2023-04-22T18:37:24.690Z,100644.13
2023-04-22T18:39:47.480Z,100647.56
2023-04-22T18:42:09.358Z,100659.00
2023-04-22T18:44:31.244Z,100664.53
2023-04-22T18:46:54.812Z,100662.84
2023-04-22T18:49:16.620Z,100673.91
2023-04-22T18:51:39.981Z,100678.00
2023-04-22T18:54:03.930Z,100685.63
2023-04-22T18:56:26.202Z,100688.19
2023-04-22T18:58:48.228Z,100696.66
2023-04-22T19:01:11.439Z,100700.63
2023-04-22T19:03:33.470Z,100701.66
2023-04-22T19:05:55.392Z,100710.22
2023-04-22T19:08:17.349Z,100712.88
2023-04-22T19:10:39.322Z,100713.47
2023-04-22T19:13:01.696Z,100718.78
2023-04-22T19:15:23.546Z,100713.97
2023-04-22T19:17:45.586Z,100719.94
2023-04-22T19:20:08.278Z,100720.66
2023-04-22T19:22:30.161Z,100721.44
2023-04-22T19:24:52.065Z,100728.47
2023-04-22T19:27:14.799Z,100737.91
2023-04-22T19:29:36.596Z,100733.91
2023-04-22T19:31:59.866Z,100736.44
2023-04-22T19:34:21.762Z,100735.63
2023-04-22T19:36:43.561Z,100730.09
2023-04-22T19:39:06.181Z,100735.97
2023-04-22T19:41:27.967Z,100738.63
2023-04-22T19:43:49.825Z,100748.69
2023-04-22T19:46:11.891Z,100749.03
2023-04-22T19:48:36.464Z,100752.38
2023-04-22T19:50:59.134Z,100753.06
2023-04-22T19:53:24.008Z,100739.84
2023-04-22T19:55:46.931Z,100746.03
2023-04-22T19:58:10.625Z,100750.75
2023-04-22T20:00:33.364Z,100755.56
2023-04-22T20:02:55.639Z,100762.09
2023-04-22T20:05:19.412Z,100759.69
2023-04-22T20:07:44.313Z,100753.69
2023-04-22T20:10:08.510Z,100761.03
2023-04-22T20:12:31.007Z,100753.78
2023-04-22T20:14:53.182Z,100751.38
2023-04-22T20:17:15.835Z,100760.78
2023-04-22T20:19:39.270Z,100750.59
2023-04-22T20:22:04.290Z,100755.97
2023-04-22T20:24:28.872Z,100742.97
2023-04-22T20:26:51.549Z,100753.69
2023-04-22T20:29:14.355Z,100747.38
2023-04-22T20:31:37.340Z,100748.16
2023-04-22T20:34:00.248Z,100739.09
2023-04-22T20:36:24.124Z,100739.09
2023-04-22T20:38:49.528Z,100743.34
2023-04-22T20:41:13.327Z,100740.91
2023-04-22T20:43:35.847Z,100739.63
2023-04-22T20:45:58.037Z,100741.44
2023-04-22T20:48:19.824Z,100735.03
2023-04-22T20:50:42.253Z,100742.03
2023-04-22T20:53:04.136Z,100738.31
2023-04-22T20:55:26.948Z,100745.66
2023-04-22T20:57:48.730Z,100752.66
2023-04-22T21:00:11.611Z,100752.19
2023-04-22T21:02:35.455Z,100750.13
2023-04-22T21:04:59.146Z,100751.28
2023-04-22T21:07:22.110Z,100749.16
2023-04-22T21:09:44.230Z,100754.25
2023-04-22T21:12:06.983Z,100753.75
2023-04-22T21:14:29.456Z,100763.16
2023-04-22T21:17:05.560Z,100765.47
2023-04-22T21:19:33.734Z,100756.25
2023-04-22T21:21:57.866Z,100750.28
2023-04-22T21:24:21.605Z,100754.19
2023-04-22T21:26:46.197Z,100750.16
2023-04-22T21:29:09.057Z,100758.28
2023-04-22T21:31:30.902Z,100757.78
2023-04-22T21:33:53.468Z,100756.66
2023-04-22T21:36:16.549Z,100748.41
2023-04-22T21:38:38.413Z,100754.72
2023-04-22T21:41:00.349Z,100753.22
2023-04-22T21:43:22.431Z,100757.13
2023-04-22T21:45:44.935Z,100760.22
2023-04-22T21:48:07.183Z,100768.81
2023-04-22T21:50:30.449Z,100760.91
2023-04-22T21:52:52.595Z,100758.47
2023-04-22T21:55:14.621Z,100755.25
2023-04-22T21:57:36.368Z,100757.53
2023-04-22T21:59:58.189Z,100760.97
2023-04-22T22:02:20.835Z,100760.47
2023-04-22T22:04:42.788Z,100771.88
2023-04-22T22:07:04.770Z,100776.41
2023-04-22T22:09:27.325Z,100776.25
2023-04-22T22:11:48.933Z,100769.84
2023-04-22T22:14:14.250Z,100776.47
2023-04-22T22:16:36.013Z,100768.88
2023-04-22T22:18:58.331Z,100773.22
2023-04-22T22:21:20.185Z,100777.13
2023-04-22T22:23:41.754Z,100773.91
2023-04-22T22:26:03.496Z,100783.31
2023-04-22T22:28:25.289Z,100782.84
2023-04-22T22:30:46.992Z,100773.31
2023-04-22T22:33:08.868Z,100778.34
2023-04-22T22:35:30.584Z,100773.97
2023-04-22T22:37:52.341Z,100777.53
2023-04-22T22:40:14.105Z,100771.88
2023-04-22T22:42:36.154Z,100769.47
2023-04-22T22:44:58.230Z,100766.72
2023-04-22T22:47:21.061Z,100767.84
2023-04-22T22:49:42.864Z,100773.34
2023-04-22T22:52:04.941Z,100769.78
2023-04-22T22:54:27.911Z,100770.59
2023-04-22T22:56:49.653Z,100765.72
2023-04-22T22:59:11.334Z,100776.25
2023-04-22T23:01:33.236Z,100765.13
2023-04-22T23:03:55.320Z,100766.72
2023-04-22T23:06:17.490Z,100769.16
2023-04-22T23:08:39.166Z,100773.50
2023-04-22T23:11:01.998Z,100766.41
2023-04-22T23:13:24.149Z,100769.16
2023-04-22T23:15:45.837Z,100768.34
2023-04-22T23:18:09.228Z,100778.53
2023-04-22T23:20:31.508Z,100763.97
2023-04-22T23:22:54.305Z,100769.47
2023-04-22T23:25:16.771Z,100763.97
2023-04-22T23:27:38.930Z,100762.00
2023-04-22T23:30:01.200Z,100759.25
2023-04-22T23:32:26.563Z,100752.63
2023-04-22T23:34:52.430Z,100753.44
2023-04-22T23:37:15.342Z,100748.59
2023-04-22T23:39:37.316Z,100743.09
2023-04-22T23:41:59.055Z,100736.31
2023-04-22T23:44:20.907Z,100735.03
2023-04-22T23:46:42.766Z,100731.78
2023-04-22T23:49:04.558Z,100734.88
2023-04-22T23:51:26.510Z,100746.56
2023-04-22T23:53:48.229Z,100743.31
2023-04-22T23:56:11.388Z,100740.44
2023-04-22T23:58:33.546Z,100745.13
